Time;durP1;ratioP1;P1;durP2;ratioP2;P2;SDS_P1;SDS_P2;PMS_P1;PMS_P2;Temp;Humidity;BMP_temperature;BMP_pressure;BME280_temperature;BME280_humidity;BME280_pressure;Samples;Min_cycle;Max_cycle;Signal;HPM_P1;HPM_P2
2024/04/08 00:00:14;;;;;;;;;;;;;;;14.13;49.20;95197.66;4186287;28;20406;-64
2024/04/08 00:02:15;;;;;;;;;;;;;;;14.06;49.43;95187.97;4181265;28;19940;-66
2024/04/08 00:04:16;;;;;;;;;;;;;;;14.06;49.22;95193.22;4200509;28;19985;-65
2024/04/08 00:06:17;;;;;;;;;;;;;;;13.90;49.62;95188.81;4191180;28;20069;-63
2024/04/08 00:08:17;;;;;;;;;;;;;;;13.44;50.68;95185.88;4180506;28;20012;-66
2024/04/08 00:10:18;;;;;;;;;;;;;;;13.38;51.21;95190.03;4176346;28;20054;-65
2024/04/08 00:12:18;;;;;;;;;;;;;;;13.51;50.99;95192.16;4189849;28;21277;-61
2024/04/08 00:14:19;;;;;;;;;;;;;;;13.60;50.58;95196.44;4189611;28;19982;-65
2024/04/08 00:16:20;;;;;;;;;;;;;;;13.59;50.71;95194.75;4191415;28;19931;-66
2024/04/08 00:18:20;;;;;;;;;;;;;;;13.57;51.06;95193.28;4198961;28;19939;-64
2024/04/08 00:20:21;;;;;;;;;;;;;;;13.60;51.03;95188.53;4160887;28;19924;-64
2024/04/08 00:22:22;;;;;;;;;;;;;;;13.60;50.90;95187.72;4190020;28;20596;-63
2024/04/08 00:24:23;;;;;;;;;;;;;;;13.61;50.85;95181.44;4183244;28;19957;-65
2024/04/08 00:26:23;;;;;;;;;;;;;;;13.64;50.84;95184.59;4193449;28;20290;-65
2024/04/08 00:28:24;;;;;;;;;;;;;;;13.67;50.41;95196.59;4184088;28;19964;-65
2024/04/08 00:30:25;;;;;;;;;;;;;;;13.78;50.79;95192.78;4186936;28;19925;-67
2024/04/08 00:32:25;;;;;;;;;;;;;;;13.89;50.11;95190.63;4183538;28;20396;-65
2024/04/08 00:34:26;;;;;;;;;;;;;;;13.97;50.09;95191.63;4193154;28;20387;-64
2024/04/08 00:36:27;;;;;;;;;;;;;;;13.78;50.29;95188.34;4184875;28;19971;-64
2024/04/08 00:38:27;;;;;;;;;;;;;;;13.44;51.39;95186.75;4176939;28;19929;-64
2024/04/08 00:40:37;;;;;;;;;;;;;;;13.44;51.57;95181.47;4167159;28;20295;-65
2024/04/08 00:42:38;;;;;;;;;;;;;;;13.30;51.76;95190.00;4179934;28;19925;-64
2024/04/08 00:44:38;;;;;;;;;;;;;;;13.04;52.47;95190.94;4168890;28;20271;-64
2024/04/08 00:46:39;;;;;;;;;;;;;;;12.95;52.60;95194.53;4184383;28;20031;-64
2024/04/08 00:48:40;;;;;;;;;;;;;;;13.03;52.70;95191.91;4191361;28;19943;-66
2024/04/08 00:50:42;;;;;;;;;;;;;;;13.20;52.45;95200.66;4180445;28;19972;-64
2024/04/08 00:52:42;;;;;;;;;;;;;;;13.33;52.05;95192.31;4168537;28;19929;-63
2024/04/08 00:54:44;;;;;;;;;;;;;;;13.46;51.58;95197.06;4191934;28;20335;-62
2024/04/08 00:56:44;;;;;;;;;;;;;;;13.50;51.28;95196.56;4191541;28;20366;-64
2024/04/08 00:58:45;;;;;;;;;;;;;;;13.56;51.21;95191.66;4184326;28;20006;-66
2024/04/08 01:00:46;;;;;;;;;;;;;;;13.62;50.62;95193.63;4171422;28;19925;-64
2024/04/08 01:02:47;;;;;;;;;;;;;;;13.66;50.67;95194.94;4190505;28;19931;-65
2024/04/08 01:04:47;;;;;;;;;;;;;;;13.68;50.48;95190.31;4192344;28;20038;-64
2024/04/08 01:06:48;;;;;;;;;;;;;;;13.66;50.63;95192.31;4188740;28;19925;-63
2024/04/08 01:08:49;;;;;;;;;;;;;;;13.68;50.74;95190.31;4183689;28;19931;-63
2024/04/08 01:10:49;;;;;;;;;;;;;;;13.68;50.37;95196.44;4181377;28;19967;-62
2024/04/08 01:12:50;;;;;;;;;;;;;;;13.69;50.47;95189.34;4190373;28;19962;-65
2024/04/08 01:14:51;;;;;;;;;;;;;;;13.76;50.66;95189.50;4191568;28;19924;-63
2024/04/08 01:16:51;;;;;;;;;;;;;;;13.75;50.28;95186.03;4174039;28;20352;-64
2024/04/08 01:18:52;;;;;;;;;;;;;;;13.74;50.63;95181.75;4190327;28;19973;-64
2024/04/08 01:20:53;;;;;;;;;;;;;;;13.72;50.24;95179.31;4176905;28;19966;-64
2024/04/08 01:22:54;;;;;;;;;;;;;;;13.71;50.41;95182.91;4188184;28;19973;-64
2024/04/08 01:24:55;;;;;;;;;;;;;;;13.70;50.87;95180.44;4174650;28;20257;-64
2024/04/08 01:26:55;;;;;;;;;;;;;;;13.66;50.52;95181.78;4172876;28;20059;-63
2024/04/08 01:28:56;;;;;;;;;;;;;;;13.71;50.46;95187.38;4165828;28;20295;-64
2024/04/08 01:31:00;;;;;;;;;;;;;;;13.68;50.94;95188.53;4187324;28;20064;-65
2024/04/08 01:33:00;;;;;;;;;;;;;;;13.69;50.96;95187.53;4188717;28;19928;-64
2024/04/08 01:35:01;;;;;;;;;;;;;;;13.71;50.48;95182.91;4181327;28;19929;-64
2024/04/08 01:37:01;;;;;;;;;;;;;;;13.67;50.88;95186.88;4191252;28;20345;-65
2024/04/08 01:39:02;;;;;;;;;;;;;;;13.71;51.04;95187.38;4186888;28;20493;-67
2024/04/08 01:41:04;;;;;;;;;;;;;;;13.73;50.98;95180.94;4185733;28;19936;-66
2024/04/08 01:43:05;;;;;;;;;;;;;;;13.71;50.31;95177.66;4188633;28;20225;-68
2024/04/08 01:45:05;;;;;;;;;;;;;;;13.71;50.26;95179.47;4185976;28;19934;-65
2024/04/08 01:47:06;;;;;;;;;;;;;;;13.68;50.25;95177.16;4182487;28;19951;-64
2024/04/08 01:49:06;;;;;;;;;;;;;;;13.62;50.72;95176.03;4167274;28;20070;-64
2024/04/08 01:51:07;;;;;;;;;;;;;;;13.59;51.00;95186.06;4190457;28;20289;-63
2024/04/08 01:53:08;;;;;;;;;;;;;;;13.56;50.78;95184.59;4184031;28;20339;-63
2024/04/08 01:55:08;;;;;;;;;;;;;;;13.55;51.30;95187.38;4182515;28;19925;-63
2024/04/08 01:57:09;;;;;;;;;;;;;;;13.54;51.17;95180.47;4188213;28;20067;-64
2024/04/08 01:59:10;;;;;;;;;;;;;;;13.51;50.90;95177.19;4193337;28;19932;-65
2024/04/08 02:01:10;;;;;;;;;;;;;;;13.44;50.74;95176.22;4176932;28;20352;-64
2024/04/08 02:03:11;;;;;;;;;;;;;;;13.42;51.01;95174.69;4186706;28;19932;-63
2024/04/08 02:05:11;;;;;;;;;;;;;;;13.37;51.29;95177.00;4190876;28;20368;-65
2024/04/08 02:07:12;;;;;;;;;;;;;;;13.33;51.16;95168.63;4184909;28;20003;-64
2024/04/08 02:09:14;;;;;;;;;;;;;;;13.29;51.34;95169.94;4160444;28;20025;-65
2024/04/08 02:11:15;;;;;;;;;;;;;;;13.29;51.49;95165.50;4186151;28;20499;-64
2024/04/08 02:13:15;;;;;;;;;;;;;;;13.25;50.99;95165.94;4190808;28;20331;-63
2024/04/08 02:15:16;;;;;;;;;;;;;;;13.23;50.86;95170.59;4187051;28;19924;-63
2024/04/08 02:17:17;;;;;;;;;;;;;;;13.19;51.21;95171.91;4169752;28;19925;-64
2024/04/08 02:19:17;;;;;;;;;;;;;;;13.17;51.18;95171.22;4179893;28;20356;-60
2024/04/08 02:21:18;;;;;;;;;;;;;;;13.16;50.78;95167.75;4178439;28;20046;-64
2024/04/08 02:23:18;;;;;;;;;;;;;;;13.19;51.04;95167.44;4195204;28;19973;-63
2024/04/08 02:25:20;;;;;;;;;;;;;;;13.20;51.11;95174.34;4184475;28;19932;-64
2024/04/08 02:27:20;;;;;;;;;;;;;;;13.21;50.81;95172.56;4185421;28;19924;-64
2024/04/08 02:29:21;;;;;;;;;;;;;;;13.21;50.96;95176.00;4188587;28;20298;-64
2024/04/08 02:31:22;;;;;;;;;;;;;;;13.18;51.34;95175.50;4179322;28;19933;-63
2024/04/08 02:33:22;;;;;;;;;;;;;;;13.11;51.58;95184.03;4180774;28;20029;-62
2024/04/08 02:35:23;;;;;;;;;;;;;;;13.03;52.11;95180.56;4163898;28;19925;-64
2024/04/08 02:37:24;;;;;;;;;;;;;;;13.07;51.98;95184.53;4196584;28;20326;-66
2024/04/08 02:39:26;;;;;;;;;;;;;;;13.01;51.98;95185.97;4163010;28;20016;-63
2024/04/08 02:41:27;;;;;;;;;;;;;;;12.85;51.40;95199.13;4179398;28;20398;-66
2024/04/08 02:43:27;;;;;;;;;;;;;;;12.63;52.02;95196.09;4178086;28;19929;-64
2024/04/08 02:45:29;;;;;;;;;;;;;;;12.22;52.78;95195.94;4159462;28;20006;-65
2024/04/08 02:47:29;;;;;;;;;;;;;;;12.06;53.75;95199.28;4187293;28;19971;-63
2024/04/08 02:49:31;;;;;;;;;;;;;;;12.14;54.12;95200.31;4174418;28;19932;-65
2024/04/08 02:51:32;;;;;;;;;;;;;;;12.27;54.17;95203.34;4183280;28;19928;-64
2024/04/08 02:53:34;;;;;;;;;;;;;;;12.32;53.77;95205.50;4186182;28;19994;-64
2024/04/08 02:55:35;;;;;;;;;;;;;;;12.39;53.74;95201.25;4188527;28;19936;-64
2024/04/08 02:57:35;;;;;;;;;;;;;;;12.47;53.55;95204.72;4149926;28;20006;-65
2024/04/08 02:59:36;;;;;;;;;;;;;;;12.47;53.07;95202.09;4188225;28;20399;-65
2024/04/08 03:01:37;;;;;;;;;;;;;;;12.33;53.29;95202.72;4181134;28;20525;-64
2024/04/08 03:03:37;;;;;;;;;;;;;;;12.23;53.78;95202.81;4186840;28;19928;-64
2024/04/08 03:05:38;;;;;;;;;;;;;;;11.89;54.14;95208.03;4187073;28;20338;-64
2024/04/08 03:07:39;;;;;;;;;;;;;;;11.72;55.11;95209.69;4187470;28;19924;-62
2024/04/08 03:09:39;;;;;;;;;;;;;;;11.80;55.26;95207.13;4184774;28;20399;-62
2024/04/08 03:11:40;;;;;;;;;;;;;;;11.96;55.45;95209.09;4187753;28;20011;-63
2024/04/08 03:13:40;;;;;;;;;;;;;;;12.15;54.84;95205.41;4175270;28;19939;-67
2024/04/08 03:15:41;;;;;;;;;;;;;;;12.27;54.34;95214.66;4192214;28;19936;-64
2024/04/08 03:17:42;;;;;;;;;;;;;;;12.39;54.03;95211.75;4190264;28;20488;-64
2024/04/08 03:19:43;;;;;;;;;;;;;;;12.43;53.66;95207.84;4185518;28;19974;-62
2024/04/08 03:21:44;;;;;;;;;;;;;;;12.48;54.01;95214.28;4188570;28;19928;-62
2024/04/08 03:23:45;;;;;;;;;;;;;;;12.52;53.90;95222.69;4183810;28;19929;-63
2024/04/08 03:25:46;;;;;;;;;;;;;;;12.43;53.93;95219.19;4182752;28;20027;-63
2024/04/08 03:27:46;;;;;;;;;;;;;;;12.39;54.22;95222.25;4168540;28;20498;-62
2024/04/08 03:29:47;;;;;;;;;;;;;;;12.34;54.02;95220.13;4186519;28;20015;-65
2024/04/08 03:31:47;;;;;;;;;;;;;;;12.36;54.18;95222.59;4191308;28;19932;-65
2024/04/08 03:33:48;;;;;;;;;;;;;;;12.38;54.96;95223.25;4183681;28;20445;-64
2024/04/08 03:35:49;;;;;;;;;;;;;;;12.40;55.35;95223.94;4171830;28;19925;-64
2024/04/08 03:37:49;;;;;;;;;;;;;;;12.45;55.63;95232.16;4193575;28;20418;-65
2024/04/08 03:39:50;;;;;;;;;;;;;;;12.47;54.88;95230.19;4191453;28;20355;-62
2024/04/08 03:41:51;;;;;;;;;;;;;;;12.48;55.35;95227.41;4192620;28;20026;-62
2024/04/08 03:43:51;;;;;;;;;;;;;;;12.52;55.40;95229.72;4209236;28;19939;-64
2024/04/08 03:45:52;;;;;;;;;;;;;;;12.55;55.23;95232.03;4193230;28;20278;-64
2024/04/08 03:47:54;;;;;;;;;;;;;;;12.54;55.33;95225.97;4192627;28;19924;-64
2024/04/08 03:49:54;;;;;;;;;;;;;;;12.54;55.24;95233.00;4163697;28;20447;-64
2024/04/08 03:51:55;;;;;;;;;;;;;;;12.54;55.53;95233.00;4193454;28;20019;-62
2024/04/08 03:53:56;;;;;;;;;;;;;;;12.55;55.32;95229.41;4199146;28;20389;-63
2024/04/08 03:56:02;;;;;;;;;;;;;;;12.55;55.63;95235.47;4188590;28;19928;-63
2024/04/08 03:58:03;;;;;;;;;;;;;;;12.58;55.18;95229.91;4189503;28;19924;-64
2024/04/08 04:00:04;;;;;;;;;;;;;;;12.58;55.36;95226.47;4166484;28;20005;-65
2024/04/08 04:02:06;;;;;;;;;;;;;;;12.60;55.16;95227.13;4169808;28;19932;-65
2024/04/08 04:04:07;;;;;;;;;;;;;;;12.58;55.61;95232.53;4172526;28;19929;-64
2024/04/08 04:06:07;;;;;;;;;;;;;;;12.58;55.61;95236.97;4191884;28;20521;-64
2024/04/08 04:08:08;;;;;;;;;;;;;;;12.52;55.35;95237.59;4182545;28;20001;-64
2024/04/08 04:10:09;;;;;;;;;;;;;;;12.49;55.48;95234.31;4183935;28;20316;-63
2024/04/08 04:12:09;;;;;;;;;;;;;;;12.53;55.89;95239.25;4194675;28;19979;-65
2024/04/08 04:14:10;;;;;;;;;;;;;;;12.58;55.22;95236.97;4196651;28;20434;-66
2024/04/08 04:16:11;;;;;;;;;;;;;;;12.59;55.02;95243.88;4183378;28;19924;-64
2024/04/08 04:18:12;;;;;;;;;;;;;;;12.63;54.98;95240.78;4192158;28;19944;-63
2024/04/08 04:20:14;;;;;;;;;;;;;;;12.68;54.73;95246.38;4174164;28;20008;-63
2024/04/08 04:22:15;;;;;;;;;;;;;;;12.63;55.07;95240.78;4176876;28;19986;-65
2024/04/08 04:24:16;;;;;;;;;;;;;;;12.63;54.90;95237.34;4179029;28;19940;-63
2024/04/08 04:26:17;;;;;;;;;;;;;;;12.61;54.79;95237.47;4163607;28;19925;-65
2024/04/08 04:28:18;;;;;;;;;;;;;;;12.58;55.08;95232.53;4179999;28;19925;-65
2024/04/08 04:30:18;;;;;;;;;;;;;;;12.63;55.07;95242.59;4162758;28;19933;-64
2024/04/08 04:32:19;;;;;;;;;;;;;;;12.62;55.14;95247.00;4178793;28;19987;-65
2024/04/08 04:34:19;;;;;;;;;;;;;;;12.70;54.78;95251.47;4181201;28;19966;-64
2024/04/08 04:36:20;;;;;;;;;;;;;;;12.73;54.71;95250.34;4188429;28;20351;-66
2024/04/08 04:38:21;;;;;;;;;;;;;;;12.75;54.89;95243.13;4193402;28;20046;-64
2024/04/08 04:40:21;;;;;;;;;;;;;;;12.82;54.49;95244.97;4173539;28;20443;-64
2024/04/08 04:42:22;;;;;;;;;;;;;;;12.88;54.20;95254.00;4183830;28;19935;-66
2024/04/08 04:44:22;;;;;;;;;;;;;;;12.96;53.90;95254.03;4192726;28;19925;-63
2024/04/08 04:46:23;;;;;;;;;;;;;;;13.02;53.93;95255.22;4176388;28;20626;-65
2024/04/08 04:48:24;;;;;;;;;;;;;;;12.96;54.04;95261.91;4192149;28;20032;-64
2024/04/08 04:50:25;;;;;;;;;;;;;;;12.95;54.35;95265.56;4186350;28;20236;-64
2024/04/08 04:52:26;;;;;;;;;;;;;;;13.00;54.05;95254.53;4169202;28;19937;-63
2024/04/08 04:54:26;;;;;;;;;;;;;;;13.11;53.91;95259.50;4189619;28;19996;-67
2024/04/08 04:56:27;;;;;;;;;;;;;;;13.21;53.97;95269.91;4180678;28;20058;-64
2024/04/08 04:58:28;;;;;;;;;;;;;;;13.33;52.96;95268.63;4189679;28;20717;-66
2024/04/08 05:00:31;;;;;;;;;;;;;;;13.41;52.61;95271.25;4191132;28;19932;-65
2024/04/08 05:02:31;;;;;;;;;;;;;;;13.47;52.28;95275.88;4171869;28;19963;-65
2024/04/08 05:04:32;;;;;;;;;;;;;;;13.48;52.21;95268.78;4182386;28;20419;-65
2024/04/08 05:06:33;;;;;;;;;;;;;;;13.45;52.48;95267.31;4182102;28;20015;-63
2024/04/08 05:08:33;;;;;;;;;;;;;;;13.43;52.67;95273.75;4183852;28;19990;-63
2024/04/08 05:10:35;;;;;;;;;;;;;;;13.46;52.55;95274.22;4191110;28;19978;-64
2024/04/08 05:12:35;;;;;;;;;;;;;;;13.51;52.17;95273.75;4184828;28;19925;-65
2024/04/08 05:14:36;;;;;;;;;;;;;;;13.58;51.70;95266.84;4185117;28;19929;-62
2024/04/08 05:16:36;;;;;;;;;;;;;;;13.66;51.84;95269.47;4188866;28;20630;-59
2024/04/08 05:18:37;;;;;;;;;;;;;;;13.73;51.53;95262.56;4184773;28;20413;-61
2024/04/08 05:20:38;;;;;;;;;;;;;;;13.82;51.35;95271.28;4187988;28;19994;-62
2024/04/08 05:22:44;;;;;;;;;;;;;;;13.87;51.15;95281.31;4190174;28;19924;-61
2024/04/08 05:24:44;;;;;;;;;;;;;;;13.94;50.75;95271.78;4175343;28;19924;-60
2024/04/08 05:26:45;;;;;;;;;;;;;;;13.96;51.14;95268.97;4189716;28;20422;-70
2024/04/08 05:28:46;;;;;;;;;;;;;;;14.04;50.49;95275.06;4186866;28;19929;-64
2024/04/08 05:30:47;;;;;;;;;;;;;;;14.04;51.46;95271.59;4180633;28;19925;-61
2024/04/08 05:32:48;;;;;;;;;;;;;;;14.16;50.75;95275.53;4187419;28;19925;-63
2024/04/08 05:34:48;;;;;;;;;;;;;;;14.31;50.45;95271.25;4190027;28;19985;-64
2024/04/08 05:36:49;;;;;;;;;;;;;;;14.42;50.86;95269.25;4191837;28;21535;-62
2024/04/08 05:38:50;;;;;;;;;;;;;;;14.54;50.52;95281.91;4200525;28;19928;-63
2024/04/08 05:40:51;;;;;;;;;;;;;;;14.66;50.12;95271.81;4192382;28;20244;-61
2024/04/08 05:42:51;;;;;;;;;;;;;;;14.77;50.02;95275.09;4189891;28;19958;-62
2024/04/08 05:44:52;;;;;;;;;;;;;;;14.84;49.12;95276.88;4181471;28;19925;-61
2024/04/08 05:46:53;;;;;;;;;;;;;;;14.92;48.91;95276.81;4187798;28;19933;-62
2024/04/08 05:48:54;;;;;;;;;;;;;;;14.91;48.70;95275.19;4181542;28;20418;-61
2024/04/08 05:50:55;;;;;;;;;;;;;;;14.94;48.58;95281.94;4181337;28;19925;-61
2024/04/08 05:52:56;;;;;;;;;;;;;;;14.99;48.58;95279.59;4189370;28;19935;-64
2024/04/08 05:54:56;;;;;;;;;;;;;;;15.07;48.86;95278.75;4184768;28;19925;-59
2024/04/08 05:56:58;;;;;;;;;;;;;;;15.17;48.68;95284.66;4191895;28;19932;-60
2024/04/08 05:58:59;;;;;;;;;;;;;;;15.21;48.67;95272.75;4185406;28;19928;-63
2024/04/08 06:01:00;;;;;;;;;;;;;;;15.30;48.45;95278.81;4193514;28;20377;-63
2024/04/08 06:03:00;;;;;;;;;;;;;;;15.35;48.14;95277.28;4187373;28;19990;-62
2024/04/08 06:05:02;;;;;;;;;;;;;;;15.40;47.96;95282.06;4191801;28;20007;-62
2024/04/08 06:07:03;;;;;;;;;;;;;;;15.37;48.13;95279.75;4192033;28;19978;-63
2024/04/08 06:09:05;;;;;;;;;;;;;;;15.35;47.92;95277.28;4172484;28;19924;-63
2024/04/08 06:11:05;;;;;;;;;;;;;;;15.01;47.89;95287.34;4203499;28;19924;-62
2024/04/08 06:13:06;;;;;;;;;;;;;;;14.67;49.16;95281.41;4184743;28;19941;-61
2024/04/08 06:15:07;;;;;;;;;;;;;;;14.55;49.28;95280.09;4186022;28;20026;-62
2024/04/08 06:17:07;;;;;;;;;;;;;;;14.39;49.54;95288.00;4187777;28;19925;-63
2024/04/08 06:19:08;;;;;;;;;;;;;;;14.25;50.09;95285.06;4189734;28;20340;-61
2024/04/08 06:21:09;;;;;;;;;;;;;;;14.37;50.25;95287.34;4188516;28;20449;-61
2024/04/08 06:23:09;;;;;;;;;;;;;;;14.60;49.63;95282.22;4187107;28;20086;-60
2024/04/08 06:25:10;;;;;;;;;;;;;;;14.88;48.86;95275.53;4177638;28;19928;-62
2024/04/08 06:27:10;;;;;;;;;;;;;;;15.11;48.12;95272.94;4187867;28;19936;-63
2024/04/08 06:29:11;;;;;;;;;;;;;;;15.37;47.62;95279.75;4190050;28;19925;-62
2024/04/08 06:31:12;;;;;;;;;;;;;;;15.55;47.12;95282.94;4189787;28;20030;-63
2024/04/08 06:33:12;;;;;;;;;;;;;;;15.78;46.66;95282.13;4191429;28;19969;-62
2024/04/08 06:35:13;;;;;;;;;;;;;;;15.71;46.68;95283.81;4189875;28;19925;-63
2024/04/08 06:37:14;;;;;;;;;;;;;;;15.48;47.13;95291.72;4191231;28;20307;-62
2024/04/08 06:39:15;;;;;;;;;;;;;;;15.38;47.63;95281.41;4167861;28;20426;-62
2024/04/08 06:41:18;;;;;;;;;;;;;;;15.18;48.21;95282.81;4188327;28;20069;-61
2024/04/08 06:43:18;;;;;;;;;;;;;;;14.93;48.65;95290.88;4156393;28;20609;-61
2024/04/08 06:45:19;;;;;;;;;;;;;;;15.04;48.83;95294.94;4188130;28;19924;-61
2024/04/08 06:47:20;;;;;;;;;;;;;;;15.11;48.53;95286.16;4192933;28;19928;-64
2024/04/08 06:49:20;;;;;;;;;;;;;;;15.18;48.38;95285.47;4175801;28;19929;-62
2024/04/08 06:51:21;;;;;;;;;;;;;;;15.01;48.88;95290.81;4193809;28;19931;-62
2024/04/08 06:53:22;;;;;;;;;;;;;;;15.26;48.70;95288.88;4186615;28;20012;-62
2024/04/08 06:55:24;;;;;;;;;;;;;;;15.45;48.20;95289.44;4193175;28;20031;-62
2024/04/08 06:57:25;;;;;;;;;;;;;;;15.74;47.85;95294.06;4186475;28;19925;-63
2024/04/08 06:59:27;;;;;;;;;;;;;;;15.91;47.11;95292.94;4180321;28;20441;-61
2024/04/08 07:01:30;;;;;;;;;;;;;;;15.70;47.53;95300.66;4183848;28;19931;-63
2024/04/08 07:03:30;;;;;;;;;;;;;;;15.34;48.47;95298.59;4190850;28;19933;-64
2024/04/08 07:05:31;;;;;;;;;;;;;;;15.21;48.78;95303.56;4188754;28;19929;-63
2024/04/08 07:07:32;;;;;;;;;;;;;;;15.46;48.70;95299.81;4190516;28;19994;-63
2024/04/08 07:09:32;;;;;;;;;;;;;;;15.64;47.92;95294.25;4193012;28;20046;-62
2024/04/08 07:11:33;;;;;;;;;;;;;;;15.84;47.51;95291.19;4193505;28;20003;-63
2024/04/08 07:13:36;;;;;;;;;;;;;;;16.06;47.45;95295.63;4187527;28;20001;-63
2024/04/08 07:15:36;;;;;;;;;;;;;;;16.35;46.85;95292.22;4180244;28;20060;-60
2024/04/08 07:17:37;;;;;;;;;;;;;;;16.52;46.79;95292.88;4181486;28;19929;-59
2024/04/08 07:19:38;;;;;;;;;;;;;;;16.47;46.31;95297.06;4185660;28;20436;-63
2024/04/08 07:21:38;;;;;;;;;;;;;;;16.48;46.50;95293.44;4193399;28;19935;-62
2024/04/08 07:23:39;;;;;;;;;;;;;;;16.70;46.12;95291.69;4191868;28;19933;-62
2024/04/08 07:25:39;;;;;;;;;;;;;;;16.86;45.34;95290.72;4188342;28;20022;-62
2024/04/08 07:27:40;;;;;;;;;;;;;;;16.95;45.32;95295.75;4188137;28;19951;-62
2024/04/08 07:29:41;;;;;;;;;;;;;;;17.10;45.45;95293.09;4190465;28;19973;-63
2024/04/08 07:31:41;;;;;;;;;;;;;;;17.16;44.74;95289.69;4188147;28;19982;-66
2024/04/08 07:33:42;;;;;;;;;;;;;;;17.29;44.66;95293.50;4183914;28;20028;-64
2024/04/08 07:35:43;;;;;;;;;;;;;;;17.43;44.43;95286.53;4177575;28;20074;-62
2024/04/08 07:37:43;;;;;;;;;;;;;;;17.40;44.18;95285.06;4184852;28;19928;-62
2024/04/08 07:39:44;;;;;;;;;;;;;;;16.78;45.23;95291.63;4166673;28;19932;-64
2024/04/08 07:41:45;;;;;;;;;;;;;;;16.82;45.41;95297.38;4189817;28;19932;-63
2024/04/08 07:43:46;;;;;;;;;;;;;;;16.78;45.10;95299.56;4188385;28;19925;-64
2024/04/08 07:45:47;;;;;;;;;;;;;;;16.79;45.26;95296.72;4187198;28;19925;-61
2024/04/08 07:47:47;;;;;;;;;;;;;;;16.69;45.45;95290.88;4174868;28;19949;-65
2024/04/08 07:49:55;;;;;;;;;;;;;;;16.52;45.63;95286.75;4190319;28;19928;-63
2024/04/08 07:51:55;;;;;;;;;;;;;;;16.36;46.08;95291.22;4202195;28;19999;-64
2024/04/08 07:53:56;;;;;;;;;;;;;;;16.53;45.99;95291.88;4184900;28;19925;-61
2024/04/08 07:55:57;;;;;;;;;;;;;;;16.21;46.49;95290.38;4193916;28;20487;-64
2024/04/08 07:57:57;;;;;;;;;;;;;;;16.27;46.24;95292.28;4186775;28;19928;-67
2024/04/08 07:59:59;;;;;;;;;;;;;;;16.56;46.10;95282.75;4189325;28;20015;-63
2024/04/08 08:01:59;;;;;;;;;;;;;;;16.97;44.75;95292.88;4168337;28;20308;-64
2024/04/08 08:04:00;;;;;;;;;;;;;;;16.82;44.77;95292.09;4184510;28;19932;-64
2024/04/08 08:06:01;;;;;;;;;;;;;;;16.62;45.10;95282.03;4190997;28;19935;-61
2024/04/08 08:08:01;;;;;;;;;;;;;;;16.36;45.70;95293.03;4186024;28;19928;-62
2024/04/08 08:10:02;;;;;;;;;;;;;;;16.51;45.29;95285.13;4189891;28;19998;-62
2024/04/08 08:12:03;;;;;;;;;;;;;;;16.55;45.48;95278.47;4194208;28;20413;-61
2024/04/08 08:14:04;;;;;;;;;;;;;;;16.70;44.49;95281.94;4192794;28;19977;-61
2024/04/08 08:16:05;;;;;;;;;;;;;;;16.88;44.48;95272.84;4187673;28;19996;-64
2024/04/08 08:18:05;;;;;;;;;;;;;;;16.91;44.39;95275.13;4192910;28;19936;-63
2024/04/08 08:20:06;;;;;;;;;;;;;;;16.59;44.72;95272.63;4187014;28;19961;-61
2024/04/08 08:22:07;;;;;;;;;;;;;;;16.69;44.64;95269.72;4193923;28;19924;-62
2024/04/08 08:24:08;;;;;;;;;;;;;;;16.90;44.17;95271.63;4182139;28;20018;-67
2024/04/08 08:26:09;;;;;;;;;;;;;;;16.98;43.91;95279.47;4175130;28;19935;-63
2024/04/08 08:28:09;;;;;;;;;;;;;;;17.14;42.78;95267.03;4182773;28;20025;-63
2024/04/08 08:30:10;;;;;;;;;;;;;;;17.43;41.94;95274.09;4167312;28;20423;-63
2024/04/08 08:32:11;;;;;;;;;;;;;;;17.76;41.54;95270.97;4184644;28;20015;-66
2024/04/08 08:34:11;;;;;;;;;;;;;;;18.14;40.96;95262.78;4185279;28;19931;-63
2024/04/08 08:36:12;;;;;;;;;;;;;;;18.34;39.70;95266.38;4168939;28;19951;-65
2024/04/08 08:38:13;;;;;;;;;;;;;;;18.53;39.43;95262.22;4181374;28;19951;-64
2024/04/08 08:40:13;;;;;;;;;;;;;;;18.77;38.72;95257.47;4183841;28;19925;-65
2024/04/08 08:42:18;;;;;;;;;;;;;;;18.81;38.50;95262.22;4169764;28;20049;-66
2024/04/08 08:44:21;;;;;;;;;;;;;;;18.97;38.88;95252.28;4184322;28;19925;-65
2024/04/08 08:46:25;;;;;;;;;;;;;;;18.92;37.53;95255.53;4190374;28;19944;-65
2024/04/08 08:48:25;;;;;;;;;;;;;;;18.68;38.02;95254.16;4182775;28;19928;-64
2024/04/08 08:50:26;;;;;;;;;;;;;;;18.86;38.30;95251.00;4189495;28;19935;-63
2024/04/08 08:52:27;;;;;;;;;;;;;;;19.10;37.96;95254.16;4188154;28;19924;-63
2024/04/08 08:54:27;;;;;;;;;;;;;;;18.93;37.17;95258.97;4186724;28;19924;-65
2024/04/08 08:56:28;;;;;;;;;;;;;;;18.30;38.51;95249.19;4182774;28;20004;-63
2024/04/08 08:58:29;;;;;;;;;;;;;;;18.28;38.62;95250.41;4196421;28;19928;-63
2024/04/08 09:00:30;;;;;;;;;;;;;;;18.48;38.58;95242.63;4187050;28;19924;-63
2024/04/08 09:02:31;;;;;;;;;;;;;;;18.79;38.23;95248.31;4179224;28;20029;-63
2024/04/08 09:04:32;;;;;;;;;;;;;;;18.96;36.37;95238.19;4168243;28;20414;-65
2024/04/08 09:06:33;;;;;;;;;;;;;;;19.04;36.29;95242.50;4187742;28;19928;-63
2024/04/08 09:08:34;;;;;;;;;;;;;;;18.97;35.62;95245.16;4187953;28;19963;-62
2024/04/08 09:10:41;;;;;;;;;;;;;;;18.95;34.88;95239.22;4183442;28;20340;-62
2024/04/08 09:12:42;;;;;;;;;;;;;;;18.83;34.66;95243.44;4183611;28;19932;-65
2024/04/08 09:14:43;;;;;;;;;;;;;;;18.68;35.32;95237.41;4167971;28;19969;-62
2024/04/08 09:16:48;;;;;;;;;;;;;;;18.68;35.51;95232.09;4186014;28;19971;-62
2024/04/08 09:18:49;;;;;;;;;;;;;;;18.92;35.63;95236.13;4182054;28;20233;-62
2024/04/08 09:20:50;;;;;;;;;;;;;;;19.22;34.78;95239.31;4179380;28;19940;-63
2024/04/08 09:22:50;;;;;;;;;;;;;;;19.14;33.02;95237.63;4184007;28;19993;-62
2024/04/08 09:24:51;;;;;;;;;;;;;;;19.32;33.56;95231.78;4175038;28;20057;-64
2024/04/08 09:26:52;;;;;;;;;;;;;;;19.54;33.49;95221.81;4186264;28;20160;-63
2024/04/08 09:28:52;;;;;;;;;;;;;;;19.56;33.35;95226.94;4187212;28;20015;-63
2024/04/08 09:30:53;;;;;;;;;;;;;;;19.58;33.66;95220.38;4173314;28;20075;-63
2024/04/08 09:32:54;;;;;;;;;;;;;;;19.49;33.65;95207.47;4183539;28;19986;-66
2024/04/08 09:34:54;;;;;;;;;;;;;;;19.71;32.48;95216.97;4172749;28;19986;-66
2024/04/08 09:36:55;;;;;;;;;;;;;;;19.52;33.02;95217.72;4198131;28;19924;-67
2024/04/08 09:38:56;;;;;;;;;;;;;;;19.53;33.25;95211.38;4168454;28;19935;-63
2024/04/08 09:40:57;;;;;;;;;;;;;;;19.70;33.13;95204.69;4188541;28;20008;-62
2024/04/08 09:42:57;;;;;;;;;;;;;;;19.97;32.95;95204.69;4163962;28;19935;-63
2024/04/08 09:44:59;;;;;;;;;;;;;;;20.26;32.03;95200.78;4185526;28;20344;-64
2024/04/08 09:47:00;;;;;;;;;;;;;;;20.11;31.86;95194.84;4186986;28;19924;-64
2024/04/08 09:49:02;;;;;;;;;;;;;;;20.30;31.79;95202.00;4177752;28;19978;-62
2024/04/08 09:51:05;;;;;;;;;;;;;;;20.21;31.30;95189.94;4185423;28;19931;-61
2024/04/08 09:53:06;;;;;;;;;;;;;;;20.21;31.52;95192.59;4170469;28;20546;-63
2024/04/08 09:56:52;;;;;;;;;;;;;;;20.15;31.11;95190.78;4505669;26;20221;-64
2024/04/08 09:59:13;;;;;;;;;;;;;;;19.83;31.17;95179.94;4468499;26;20008;-66
2024/04/08 10:01:15;;;;;;;;;;;;;;;19.70;31.46;95180.75;4475222;26;19953;-62
2024/04/08 10:03:17;;;;;;;;;;;;;;;19.56;31.32;95173.78;4474020;26;20648;-64
2024/04/08 10:05:19;;;;;;;;;;;;;;;19.47;31.75;95167.00;4486841;26;19929;-64
2024/04/08 10:07:21;;;;;;;;;;;;;;;19.76;31.67;95169.31;4464847;26;20360;-62
2024/04/08 10:09:24;;;;;;;;;;;;;;;19.73;31.39;95167.06;4434749;26;19946;-62
2024/04/08 10:11:25;;;;;;;;;;;;;;;19.98;31.80;95164.63;4454352;26;20025;-64
2024/04/08 10:13:29;;;;;;;;;;;;;;;20.29;31.57;95164.97;4456759;26;19933;-62
2024/04/08 10:15:31;;;;;;;;;;;;;;;20.47;31.51;95167.78;4460758;26;20048;-63
2024/04/08 10:17:33;;;;;;;;;;;;;;;20.45;30.98;95157.34;4471916;26;20297;-63
2024/04/08 10:19:35;;;;;;;;;;;;;;;20.18;31.49;95161.13;4466364;26;20495;-63
2024/04/08 10:21:37;;;;;;;;;;;;;;;19.93;32.04;95160.94;4466079;26;20445;-63
2024/04/08 10:23:39;;;;;;;;;;;;;;;19.88;31.94;95156.22;4459249;26;19957;-63
2024/04/08 10:25:47;;;;;;;;;;;;;;;20.13;32.52;95150.25;4460020;26;19999;-64
2024/04/08 10:27:57;;;;;;;;;;;;;;;20.35;31.72;95151.66;4410148;26;19942;-65
2024/04/08 10:29:59;;;;;;;;;;;;;;;20.50;31.60;95158.56;4449349;26;20356;-63
2024/04/08 10:32:03;;;;;;;;;;;;;;;20.69;30.94;95144.38;4464520;26;19940;-63